KDTN/DTN METAR and TAF weather

Enter ICAO airport designator
Station Type Date Time Source
KDTN METAR 2020/02/16 19:53 UTC NOAA

KDTN 161953Z AUTO 13004KT 10SM OVC015 17/13 A3001 RMK AO2 SLP161 T01670128


Station Type Date Time Source
KDTN Decoded METAR 2020/02/16 19:53 UTC NOAA

SHREVEPORT DOWNTOWN AIRPORT, LA, United States (KDTN) 32-32N 093-45W 53M
Feb 16, 2020 - 02:53 PM EST / 2020.02.16 1953 UTC
Wind: from the SE (130 degrees) at 5 MPH (4 KT):0
Visibility: 10 mile(s):0
Sky conditions: overcast
Temperature: 62.1 F (16.7 C)
Dew Point: 55.0 F (12.8 C)
Relative Humidity: 77%
Pressure (altimeter): 30.01 in. Hg (1016 hPa)
ob: KDTN 161953Z AUTO 13004KT 10SM OVC015 17/13 A3001 RMK AO2 SLP161 T01670128
cycle: 20

Station Type Date Time Source
KDTN TAF UTC NOAA

Error!

Example: see airport list